Kurahashi — JD2319 — position and weather

sailwx.info

Track history (hours):
 
Tides and Currents Weather Stations Pressure Air Temp Water Temp Dewpoint Dewpoint Depression Visibility Wind Speed Wind Dir Waves Ship Positions

Kurahashi

Last reported at 2018-May-21 10:47 UTC. Time now 2018-May-21 12:37 UTC.
Position N 34°25' E 134°20'.

Length 73 m; draft 4.1 m.

Type: Ship (hazmat cat C). MMSI: 431402059.

Date/timePositionNaut miles runAvg speedWind from/ knotsBaromVisibWave heightAir tempDewpointWater temp
2018-May-21 10:47N 34°25' E 134°20'412.4
2018-May-21 10:30N 34°27' E 134°24'612.1
2018-May-21 10:00N 34°29' E 134°31'612.0
2018-May-21 09:30N 34°31' E 134°38'611.8
2018-May-21 09:00N 34°33' E 134°45'611.4
2018-May-21 08:30N 34°35' E 134°51'610.9
2018-May-21 07:59N 34°37' E 134°57'510.4
2018-May-21 07:30N 34°36' E 135°03'612.0
2018-May-21 07:00N 34°37' E 135°11'612.1
2018-May-21 06:30N 34°38' E 135°18'611.6
2018-May-21 05:59N 34°41' E 135°24'0 0.7
2018-May-21 05:30N 34°42' E 135°24'0 0.0
2018-May-21 04:59N 34°42' E 135°24'0 0.0
2018-May-21 04:29N 34°42' E 135°24'0 0.0
2018-May-21 04:00N 34°42' E 135°24'0 0.0
2018-May-21 03:30N 34°42' E 135°24'0 0.0
2018-May-21 03:00N 34°42' E 135°24'0 0.0
2018-May-21 02:30N 34°42' E 135°24'0 0.0
2018-May-21 02:00N 34°42' E 135°24'0 0.0
2018-May-21 01:30N 34°42' E 135°24'0 0.0
2018-May-21 00:53N 34°42' E 135°24'0 0.0
2018-May-21 00:30N 34°42' E 135°24'0 0.0
2018-May-21 00:00N 34°42' E 135°24'1 1.7
2018-May-20 23:30N 34°41' E 135°24'2 4.4
2018-May-20 23:00N 34°39' E 135°22'0 0.0
2018-May-20 22:30N 34°39' E 135°22'1 1.0
2018-May-20 21:59N 34°39' E 135°21'4 8.0
2018-May-20 21:30N 34°35' E 135°20'4 8.8
2018-May-20 21:01N 34°31' E 135°23'0 0.0
2018-May-19 02:24N 34°31' E 135°24'0 0.0
2018-May-19 01:10N 34°31' E 135°24'0 0.0
2018-May-19 00:44N 34°31' E 135°24'0 0.0
2018-May-19 00:30N 34°31' E 135°24'0 0.0
2018-May-18 23:48N 34°31' E 135°24'0 0.0
2018-May-18 23:22N 34°31' E 135°24'0 1.2
2018-May-18 22:59N 34°32' E 135°23'1 3.0
2018-May-18 22:30N 34°32' E 135°22'0 0.0
2018-May-18 22:00N 34°32' E 135°22'0 0.0
2018-May-18 21:29N 34°32' E 135°22'0 0.0
2018-May-18 21:00N 34°32' E 135°22'0 0.1
2018-May-18 20:30N 34°32' E 135°22'0 0.0
2018-May-18 20:00N 34°32' E 135°22'0 0.0
2018-May-18 19:30N 34°32' E 135°22'0 0.1
2018-May-18 19:00N 34°32' E 135°22'0 0.1
2018-May-18 18:29N 34°32' E 135°22'0 0.0
2018-May-18 17:57N 34°32' E 135°22'0 0.0
2018-May-18 17:28N 34°32' E 135°22'0 0.0
2018-May-18 16:59N 34°32' E 135°22'0 0.0
2018-May-18 16:27N 34°32' E 135°22'0 0.0
2018-May-18 16:00N 34°32' E 135°22'0 0.0
2018-May-18 15:30N 34°32' E 135°22'0 0.0
2018-May-18 14:48N 34°32' E 135°22'0 0.0
2018-May-18 14:23N 34°32' E 135°22'0 0.0
2018-May-18 14:00N 34°32' E 135°22'0 0.0
2018-May-18 13:28N 34°32' E 135°22'0 0.0
2018-May-18 13:00N 34°32' E 135°22'0 0.0
2018-May-18 12:29N 34°32' E 135°22'0 0.0
2018-May-18 11:56N 34°32' E 135°22'0 0.0
2018-May-18 11:30N 34°32' E 135°22'0 0.0
2018-May-18 11:00N 34°32' E 135°22'0 0.0
2018-May-18 10:30N 34°32' E 135°22'0 0.0
2018-May-18 09:51N 34°32' E 135°22'0 0.0
2018-May-18 09:21N 34°32' E 135°22'0 0.0
2018-May-18 09:00N 34°32' E 135°22'0 0.0
2018-May-18 08:29N 34°32' E 135°22'0 0.0
2018-May-18 07:59N 34°32' E 135°22'0 0.1
2018-May-18 07:30N 34°32' E 135°22'3 5.0
2018-May-18 07:00N 34°31' E 135°19'611.3
2018-May-18 06:30N 34°28' E 135°13'510.4
2018-May-18 06:00N 34°25' E 135°08'510.8
2018-May-18 05:30N 34°21' E 135°04'510.2
2018-May-18 05:00N 34°17' E 134°59'5 9.5
2018-May-18 04:30N 34°13' E 134°60'611.6
2018-May-18 04:00N 34°07' E 135°01'611.6
2018-May-18 03:30N 34°01' E 135°02'711.3
2018-May-18 02:56N 33°55' E 135°02'  
2018-May-15 11:23N 35°05' E 140°18'513.3
2018-May-15 11:00N 35°02' E 140°13'613.0
2018-May-15 10:30N 34°58' E 140°07'812.4
2018-May-15 09:54N 34°54' E 139°59'512.0
2018-May-15 09:29N 34°52' E 139°53'612.2
2018-May-15 09:00N 34°54' E 139°47'612.9
2018-May-15 08:30N 35°00' E 139°44'611.9
2018-May-15 08:00N 35°06' E 139°45'611.3
2018-May-15 07:30N 35°12' E 139°46'510.8
2018-May-15 07:00N 35°17' E 139°45'611.2
2018-May-15 06:30N 35°22' E 139°43'510.7
2018-May-15 06:00N 35°27' E 139°41'2 3.4
2018-May-15 05:30N 35°29' E 139°39'0 0.0
2018-May-15 05:00N 35°29' E 139°39'0 0.0
2018-May-15 04:30N 35°29' E 139°39'0 0.1
2018-May-15 04:00N 35°29' E 139°39'0 0.0
2018-May-15 03:30N 35°29' E 139°39'0 0.0
2018-May-15 03:00N 35°29' E 139°39'0 0.0
2018-May-15 02:30N 35°29' E 139°39'0 0.0
2018-May-15 02:00N 35°29' E 139°39'0 0.0
2018-May-15 01:30N 35°29' E 139°39'0 0.1
2018-May-15 01:00N 35°29' E 139°39'0 0.0
2018-May-15 00:30N 35°29' E 139°39'0 0.0
2018-May-15 00:00N 35°29' E 139°39'0 0.0
2018-May-14 23:30N 35°29' E 139°39'0 0.0
2018-May-14 23:00N 35°29' E 139°39'2 3.5
2018-May-14 22:30N 35°27' E 139°41'2 3.7
2018-May-14 22:00N 35°26' E 139°43'0 0.0
2018-May-14 21:30N 35°26' E 139°43'0 0.0
2018-May-14 21:00N 35°26' E 139°43'0 0.0
2018-May-14 20:30N 35°26' E 139°43'0 0.0
2018-May-14 20:00N 35°26' E 139°43'0 0.0
2018-May-14 19:30N 35°26' E 139°43'0 0.0
2018-May-14 19:00N 35°26' E 139°43'0 0.0
2018-May-14 18:30N 35°26' E 139°43'0 0.1
2018-May-14 18:00N 35°26' E 139°43'0 0.0
2018-May-14 17:30N 35°26' E 139°43'0 0.0
2018-May-14 17:00N 35°27' E 139°43'0 0.0
2018-May-14 16:30N 35°27' E 139°43'0 0.0
2018-May-14 16:00N 35°27' E 139°43'0 0.0
2018-May-14 15:30N 35°26' E 139°43'0 0.0
2018-May-14 15:00N 35°26' E 139°43'0 0.0
2018-May-14 14:30N 35°26' E 139°43'0 0.0
2018-May-14 13:59N 35°26' E 139°43'0 0.0
2018-May-14 13:30N 35°26' E 139°43'0 0.0
2018-May-14 13:00N 35°26' E 139°43'0 0.0
2018-May-14 12:30N 35°26' E 139°43'0 0.0
2018-May-14 12:00N 35°26' E 139°43'0 0.1
2018-May-14 11:30N 35°26' E 139°43'0 0.0
2018-May-14 11:00N 35°26' E 139°43'0 0.1
2018-May-14 10:30N 35°26' E 139°43'3 5.9
2018-May-14 10:00N 35°24' E 139°43'510.1
2018-May-14 09:30N 35°19' E 139°44'510.2
2018-May-14 09:00N 35°14' E 139°47'611.3
2018-May-14 08:30N 35°08' E 139°46'611.5
2018-May-14 08:00N 35°03' E 139°43'611.6
2018-May-14 07:30N 34°59' E 139°38'712.7
2018-May-14 06:59N 34°56' E 139°31'713.9
2018-May-14 06:28N 34°52' E 139°23'613.2
2018-May-14 06:00N 34°48' E 139°17'612.8
2018-May-14 05:30N 34°44' E 139°11'712.5
2018-May-14 04:58N 34°40' E 139°05'510.7
2018-May-14 04:29N 34°37' E 138°60'611.8
2018-May-14 04:00N 34°35' E 138°53'612.5
2018-May-14 03:29N 34°35' E 138°46'611.9
2018-May-14 02:58N 34°34' E 138°38'711.8
2018-May-14 02:20N 34°34' E 138°29'411.7
2018-May-14 01:58N 34°33' E 138°24'511.8
2018-May-14 01:30N 34°33' E 138°17'4511.0
2018-May-13 21:27N 34°33' E 137°23'611.1
2018-May-13 20:52N 34°32' E 137°15'1110.6
2018-May-13 19:52N 34°32' E 137°02'410.3
2018-May-13 19:30N 34°35' E 136°59'2 0.4
2018-May-13 13:58N 34°36' E 137°00'106 5.9
2018-May-12 19:49N 33°47' E 135°07'510.2
2018-May-12 19:22N 33°50' E 135°03'410.1
2018-May-12 19:00N 33°53' E 134°60'510.8
2018-May-12 18:30N 33°57' E 134°56'611.0
2018-May-12 18:00N 34°01' E 134°51'510.7
2018-May-12 17:30N 34°05' E 134°47'611.0
2018-May-12 16:57N 34°10' E 134°43'511.4
2018-May-12 16:30N 34°14' E 134°39'611.6
2018-May-12 16:00N 34°17' E 134°33'611.8
2018-May-12 15:30N 34°19' E 134°26'612.0
2018-May-12 15:00N 34°22' E 134°20'712.5
2018-May-12 14:28N 34°24' E 134°12'7511.3
2018-May-12 07:47N 34°01' E 132°46'312.2
2018-May-12 07:30N 33°58' E 132°44'611.3
2018-May-12 07:00N 33°54' E 132°38'711.4
2018-May-12 06:24N 33°50' E 132°33'511.3
2018-May-12 06:00N 33°47' E 132°29'611.3
2018-May-12 05:30N 33°43' E 132°24'611.0
2018-May-12 04:58N 33°39' E 132°18'611.1
2018-May-12 04:26N 33°36' E 132°12'510.9
2018-May-12 04:00N 33°33' E 132°07'510.8
2018-May-12 03:30N 33°30' E 132°02'7 9.8
2018-May-12 02:48N 33°26' E 131°55'3 9.8
2018-May-12 02:30N 33°25' E 131°52'710.2
2018-May-12 01:50N 33°21' E 131°46'410.7
2018-May-12 01:30N 33°19' E 131°42'3 0.3
2018-May-11 14:59N 33°16' E 131°40'  
Track history (hours):
 
Tides and Currents Weather Stations Pressure Air Temp Water Temp Dewpoint Dewpoint Depression Visibility Wind Speed Wind Dir Waves Ship Positions

Kurahashi

Last reported at 2018-May-21 10:47 UTC. Time now 2018-May-21 12:37 UTC.
Position N 34°25' E 134°20'.

Length 73 m; draft 4.1 m.

Type: Ship (hazmat cat C). MMSI: 431402059.

Date/timePositionNaut miles runAvg speedWind from/ knotsBaromVisibWave heightAir tempDewpointWater temp
2018-May-21 10:47N 34°25' E 134°20'412.4
2018-May-21 10:30N 34°27' E 134°24'612.1
2018-May-21 10:00N 34°29' E 134°31'612.0
2018-May-21 09:30N 34°31' E 134°38'611.8
2018-May-21 09:00N 34°33' E 134°45'611.4
2018-May-21 08:30N 34°35' E 134°51'610.9
2018-May-21 07:59N 34°37' E 134°57'510.4
2018-May-21 07:30N 34°36' E 135°03'612.0
2018-May-21 07:00N 34°37' E 135°11'612.1
2018-May-21 06:30N 34°38' E 135°18'611.6
2018-May-21 05:59N 34°41' E 135°24'0 0.7
2018-May-21 05:30N 34°42' E 135°24'0 0.0
2018-May-21 04:59N 34°42' E 135°24'0 0.0
2018-May-21 04:29N 34°42' E 135°24'0 0.0
2018-May-21 04:00N 34°42' E 135°24'0 0.0
2018-May-21 03:30N 34°42' E 135°24'0 0.0
2018-May-21 03:00N 34°42' E 135°24'0 0.0
2018-May-21 02:30N 34°42' E 135°24'0 0.0
2018-May-21 02:00N 34°42' E 135°24'0 0.0
2018-May-21 01:30N 34°42' E 135°24'0 0.0
2018-May-21 00:53N 34°42' E 135°24'0 0.0
2018-May-21 00:30N 34°42' E 135°24'0 0.0
2018-May-21 00:00N 34°42' E 135°24'1 1.7
2018-May-20 23:30N 34°41' E 135°24'2 4.4
2018-May-20 23:00N 34°39' E 135°22'0 0.0
2018-May-20 22:30N 34°39' E 135°22'1 1.0
2018-May-20 21:59N 34°39' E 135°21'4 8.0
2018-May-20 21:30N 34°35' E 135°20'4 8.8
2018-May-20 21:01N 34°31' E 135°23'0 0.0
2018-May-19 02:24N 34°31' E 135°24'0 0.0
2018-May-19 01:10N 34°31' E 135°24'0 0.0
2018-May-19 00:44N 34°31' E 135°24'0 0.0
2018-May-19 00:30N 34°31' E 135°24'0 0.0
2018-May-18 23:48N 34°31' E 135°24'0 0.0
2018-May-18 23:22N 34°31' E 135°24'0 1.2
2018-May-18 22:59N 34°32' E 135°23'1 3.0
2018-May-18 22:30N 34°32' E 135°22'0 0.0
2018-May-18 22:00N 34°32' E 135°22'0 0.0
2018-May-18 21:29N 34°32' E 135°22'0 0.0
2018-May-18 21:00N 34°32' E 135°22'0 0.1
2018-May-18 20:30N 34°32' E 135°22'0 0.0
2018-May-18 20:00N 34°32' E 135°22'0 0.0
2018-May-18 19:30N 34°32' E 135°22'0 0.1
2018-May-18 19:00N 34°32' E 135°22'0 0.1
2018-May-18 18:29N 34°32' E 135°22'0 0.0
2018-May-18 17:57N 34°32' E 135°22'0 0.0
2018-May-18 17:28N 34°32' E 135°22'0 0.0
2018-May-18 16:59N 34°32' E 135°22'0 0.0
2018-May-18 16:27N 34°32' E 135°22'0 0.0
2018-May-18 16:00N 34°32' E 135°22'0 0.0
2018-May-18 15:30N 34°32' E 135°22'0 0.0
2018-May-18 14:48N 34°32' E 135°22'0 0.0
2018-May-18 14:23N 34°32' E 135°22'0 0.0
2018-May-18 14:00N 34°32' E 135°22'0 0.0
2018-May-18 13:28N 34°32' E 135°22'0 0.0
2018-May-18 13:00N 34°32' E 135°22'0 0.0
2018-May-18 12:29N 34°32' E 135°22'0 0.0
2018-May-18 11:56N 34°32' E 135°22'0 0.0
2018-May-18 11:30N 34°32' E 135°22'0 0.0
2018-May-18 11:00N 34°32' E 135°22'0 0.0
2018-May-18 10:30N 34°32' E 135°22'0 0.0
2018-May-18 09:51N 34°32' E 135°22'0 0.0
2018-May-18 09:21N 34°32' E 135°22'0 0.0
2018-May-18 09:00N 34°32' E 135°22'0 0.0
2018-May-18 08:29N 34°32' E 135°22'0 0.0
2018-May-18 07:59N 34°32' E 135°22'0 0.1
2018-May-18 07:30N 34°32' E 135°22'3 5.0
2018-May-18 07:00N 34°31' E 135°19'611.3
2018-May-18 06:30N 34°28' E 135°13'510.4
2018-May-18 06:00N 34°25' E 135°08'510.8
2018-May-18 05:30N 34°21' E 135°04'510.2
2018-May-18 05:00N 34°17' E 134°59'5 9.5
2018-May-18 04:30N 34°13' E 134°60'611.6
2018-May-18 04:00N 34°07' E 135°01'611.6
2018-May-18 03:30N 34°01' E 135°02'711.3
2018-May-18 02:56N 33°55' E 135°02'  
2018-May-15 11:23N 35°05' E 140°18'513.3
2018-May-15 11:00N 35°02' E 140°13'613.0
2018-May-15 10:30N 34°58' E 140°07'812.4
2018-May-15 09:54N 34°54' E 139°59'512.0
2018-May-15 09:29N 34°52' E 139°53'612.2
2018-May-15 09:00N 34°54' E 139°47'612.9
2018-May-15 08:30N 35°00' E 139°44'611.9
2018-May-15 08:00N 35°06' E 139°45'611.3
2018-May-15 07:30N 35°12' E 139°46'510.8
2018-May-15 07:00N 35°17' E 139°45'611.2
2018-May-15 06:30N 35°22' E 139°43'510.7
2018-May-15 06:00N 35°27' E 139°41'2 3.4
2018-May-15 05:30N 35°29' E 139°39'0 0.0
2018-May-15 05:00N 35°29' E 139°39'0 0.0
2018-May-15 04:30N 35°29' E 139°39'0 0.1
2018-May-15 04:00N 35°29' E 139°39'0 0.0
2018-May-15 03:30N 35°29' E 139°39'0 0.0
2018-May-15 03:00N 35°29' E 139°39'0 0.0
2018-May-15 02:30N 35°29' E 139°39'0 0.0
2018-May-15 02:00N 35°29' E 139°39'0 0.0
2018-May-15 01:30N 35°29' E 139°39'0 0.1
2018-May-15 01:00N 35°29' E 139°39'0 0.0
2018-May-15 00:30N 35°29' E 139°39'0 0.0
2018-May-15 00:00N 35°29' E 139°39'0 0.0
2018-May-14 23:30N 35°29' E 139°39'0 0.0
2018-May-14 23:00N 35°29' E 139°39'2 3.5
2018-May-14 22:30N 35°27' E 139°41'2 3.7
2018-May-14 22:00N 35°26' E 139°43'0 0.0
2018-May-14 21:30N 35°26' E 139°43'0 0.0
2018-May-14 21:00N 35°26' E 139°43'0 0.0
2018-May-14 20:30N 35°26' E 139°43'0 0.0
2018-May-14 20:00N 35°26' E 139°43'0 0.0
2018-May-14 19:30N 35°26' E 139°43'0 0.0
2018-May-14 19:00N 35°26' E 139°43'0 0.0
2018-May-14 18:30N 35°26' E 139°43'0 0.1
2018-May-14 18:00N 35°26' E 139°43'0 0.0
2018-May-14 17:30N 35°26' E 139°43'0 0.0
2018-May-14 17:00N 35°27' E 139°43'0 0.0
2018-May-14 16:30N 35°27' E 139°43'0 0.0
2018-May-14 16:00N 35°27' E 139°43'0 0.0
2018-May-14 15:30N 35°26' E 139°43'0 0.0
2018-May-14 15:00N 35°26' E 139°43'0 0.0
2018-May-14 14:30N 35°26' E 139°43'0 0.0
2018-May-14 13:59N 35°26' E 139°43'0 0.0
2018-May-14 13:30N 35°26' E 139°43'0 0.0
2018-May-14 13:00N 35°26' E 139°43'0 0.0
2018-May-14 12:30N 35°26' E 139°43'0 0.0
2018-May-14 12:00N 35°26' E 139°43'0 0.1
2018-May-14 11:30N 35°26' E 139°43'0 0.0
2018-May-14 11:00N 35°26' E 139°43'0 0.1
2018-May-14 10:30N 35°26' E 139°43'3 5.9
2018-May-14 10:00N 35°24' E 139°43'510.1
2018-May-14 09:30N 35°19' E 139°44'510.2
2018-May-14 09:00N 35°14' E 139°47'611.3
2018-May-14 08:30N 35°08' E 139°46'611.5
2018-May-14 08:00N 35°03' E 139°43'611.6
2018-May-14 07:30N 34°59' E 139°38'712.7
2018-May-14 06:59N 34°56' E 139°31'713.9
2018-May-14 06:28N 34°52' E 139°23'613.2
2018-May-14 06:00N 34°48' E 139°17'612.8
2018-May-14 05:30N 34°44' E 139°11'712.5
2018-May-14 04:58N 34°40' E 139°05'510.7
2018-May-14 04:29N 34°37' E 138°60'611.8
2018-May-14 04:00N 34°35' E 138°53'612.5
2018-May-14 03:29N 34°35' E 138°46'611.9
2018-May-14 02:58N 34°34' E 138°38'711.8
2018-May-14 02:20N 34°34' E 138°29'411.7
2018-May-14 01:58N 34°33' E 138°24'511.8
2018-May-14 01:30N 34°33' E 138°17'4511.0
2018-May-13 21:27N 34°33' E 137°23'611.1
2018-May-13 20:52N 34°32' E 137°15'1110.6
2018-May-13 19:52N 34°32' E 137°02'410.3
2018-May-13 19:30N 34°35' E 136°59'2 0.4
2018-May-13 13:58N 34°36' E 137°00'106 5.9
2018-May-12 19:49N 33°47' E 135°07'510.2
2018-May-12 19:22N 33°50' E 135°03'410.1
2018-May-12 19:00N 33°53' E 134°60'510.8
2018-May-12 18:30N 33°57' E 134°56'611.0
2018-May-12 18:00N 34°01' E 134°51'510.7
2018-May-12 17:30N 34°05' E 134°47'611.0
2018-May-12 16:57N 34°10' E 134°43'511.4
2018-May-12 16:30N 34°14' E 134°39'611.6
2018-May-12 16:00N 34°17' E 134°33'611.8
2018-May-12 15:30N 34°19' E 134°26'612.0
2018-May-12 15:00N 34°22' E 134°20'712.5
2018-May-12 14:28N 34°24' E 134°12'7511.3
2018-May-12 07:47N 34°01' E 132°46'312.2
2018-May-12 07:30N 33°58' E 132°44'611.3
2018-May-12 07:00N 33°54' E 132°38'711.4
2018-May-12 06:24N 33°50' E 132°33'511.3
2018-May-12 06:00N 33°47' E 132°29'611.3
2018-May-12 05:30N 33°43' E 132°24'611.0
2018-May-12 04:58N 33°39' E 132°18'611.1
2018-May-12 04:26N 33°36' E 132°12'510.9
2018-May-12 04:00N 33°33' E 132°07'510.8
2018-May-12 03:30N 33°30' E 132°02'7 9.8
2018-May-12 02:48N 33°26' E 131°55'3 9.8
2018-May-12 02:30N 33°25' E 131°52'710.2
2018-May-12 01:50N 33°21' E 131°46'410.7
2018-May-12 01:30N 33°19' E 131°42'3 0.3
2018-May-11 14:59N 33°16' E 131°40'  

Dump ship's entire track history